Pleasant Valley, VA (22848)

7:06 PM EDT on August 27, 2016 (GMT -0400)
Massanutten Technical Center | | Change Station

Elev 1234 ft 38.40 °N, 78.90 °W | Updated 12 seconds ago

Clear
Clear
86.0 °F
Feels Like 91 °F
N
7.6
Wind Variable Wind from SE
Gusts 9.8 mph

Today
High -- | Low -- °F
--% Chance of Precip.
Yesterday
High -- | Low -- °F
Precip. -- in
Pressure 30.18 in
Visibility 10.0 miles
Clouds Clear
Heat Index 91 °F
Dew Point 71 °F
Humidity 61%
Rainfall 0.00 in
Snow Depth Not available.
6:41 AM 7:52 PM
Waning Crescent, 21% visible
METAR KSHD 272255Z AUTO 11004KT 10SM CLR 29/20 A3018 RMK AO2 T02850204
Pressure 30.18 in
Visibility 10.0 miles
Clouds Clear
Heat Index 91 °F
Dew Point 71 °F
Humidity 61%
Rainfall 0.00 in
Snow Depth Not available.
6:41 AM 7:52 PM
Waning Crescent, 21% visible
METAR KSHD 272255Z AUTO 11004KT 10SM CLR 29/20 A3018 RMK AO2 T02850204

10-Day Weather Forecast

Almanac

Astronomy

Aug. 27, 2016 Rise Set
Actual Time
Civil Twilight
Nautical Twilight
Astronomical Twilight
Moon
Length of Visible Light
Length of Day
Tomorrow will be .
, % of the Moon is Illuminated

Today's Extremes

State Highs State Lows

Community

WunderPhotos

Upload Photos

1,935,462 photos uploaded!

WunderBlog® & News

Nearby

Air Quality

  Air Quality AQ Index Pollutant
Not available.

Snow Depth

Station Depth Elevation

Earthquake Activity

City Distance Mag. Time & Date
Minimum magnitude displayed is 2.5.

Coastal Water Temperatures

Place Temperature

Stations

Nearby Weather Stations

Station Location Temp. Windchill Dew Point Humidity Wind Precip. Elev Updated Type
                   

Watches & Warnings

There are currently no watches in effect.